createdAt,value
2023-03-04T00:02:22.333Z,-1.50
2023-03-04T00:04:49.360Z,-1.50
2023-03-04T00:07:18.919Z,-1.50
2023-03-04T00:09:46.658Z,-1.50
2023-03-04T00:12:13.928Z,-1.60
2023-03-04T00:14:41.025Z,-1.60
2023-03-04T00:17:08.110Z,-1.60
2023-03-04T00:19:35.657Z,-1.50
2023-03-04T00:22:04.406Z,-1.50
2023-03-04T00:24:32.427Z,-1.50
2023-03-04T00:26:59.578Z,-1.40
2023-03-04T00:29:26.864Z,-1.40
2023-03-04T00:31:54.213Z,-1.40
2023-03-04T00:34:21.856Z,-1.40
2023-03-04T00:36:50.156Z,-1.50
2023-03-04T00:39:17.142Z,-1.50
2023-03-04T00:41:44.327Z,-1.50
2023-03-04T00:44:11.349Z,-1.60
2023-03-04T00:46:38.380Z,-1.60
2023-03-04T00:49:05.305Z,-1.60
2023-03-04T00:51:32.214Z,-1.60
2023-03-04T00:54:00.928Z,-1.60
2023-03-04T00:56:28.116Z,-1.60
2023-03-04T00:58:55.630Z,-1.70
2023-03-04T01:01:22.940Z,-1.70
2023-03-04T01:03:50.120Z,-1.60
2023-03-04T01:06:17.266Z,-1.60
2023-03-04T01:08:45.347Z,-1.60
2023-03-04T01:11:12.431Z,-1.60
2023-03-04T01:13:39.875Z,-1.60
2023-03-04T01:16:07.752Z,-1.60
2023-03-04T01:18:34.959Z,-1.60
2023-03-04T01:21:01.973Z,-1.70
2023-03-04T01:23:29.171Z,-1.70
2023-03-04T01:25:56.271Z,-1.70
2023-03-04T01:28:23.399Z,-1.70
2023-03-04T01:30:50.337Z,-1.80
2023-03-04T01:33:17.475Z,-1.80
2023-03-04T01:35:44.574Z,-1.80
2023-03-04T01:38:12.796Z,-1.80
2023-03-04T01:40:40.186Z,-1.90
2023-03-04T01:43:07.191Z,-1.90
2023-03-04T01:45:35.657Z,-1.90
2023-03-04T01:48:02.710Z,-1.90
2023-03-04T01:50:35.726Z,-1.90
2023-03-04T01:53:04.027Z,-1.80
2023-03-04T01:55:32.142Z,-1.90
2023-03-04T01:57:59.288Z,-1.80
2023-03-04T02:00:28.235Z,-1.80
2023-03-04T02:03:19.781Z,-1.80
2023-03-04T02:05:50.616Z,-1.80
2023-03-04T02:08:20.754Z,-1.80
2023-03-04T02:10:48.482Z,-1.70
2023-03-04T02:13:16.411Z,-1.80
2023-03-04T02:15:45.180Z,-1.90
2023-03-04T02:18:19.275Z,-2.00
2023-03-04T02:20:56.037Z,-2.10
2023-03-04T02:23:32.972Z,-2.10
2023-03-04T02:26:21.543Z,-2.10
2023-03-04T02:28:50.609Z,-2.10
2023-03-04T02:31:28.252Z,-2.10
2023-03-04T02:33:58.489Z,-2.10
2023-03-04T02:36:26.356Z,-2.10
2023-03-04T02:38:54.986Z,-2.10
2023-03-04T02:41:27.977Z,-2.10
2023-03-04T02:43:56.573Z,-2.10
2023-03-04T02:46:24.113Z,-2.10
2023-03-04T02:48:52.093Z,-2.20
2023-03-04T02:51:19.353Z,-2.20
2023-03-04T02:53:46.498Z,-2.20
2023-03-04T02:56:13.419Z,-2.20
2023-03-04T02:58:41.364Z,-2.20
2023-03-04T03:01:08.778Z,-2.20
2023-03-04T03:03:36.210Z,-2.30
2023-03-04T03:06:03.278Z,-2.30
2023-03-04T03:08:30.517Z,-2.30
2023-03-04T03:10:57.465Z,-2.40
2023-03-04T03:13:24.944Z,-2.40
2023-03-04T03:15:51.979Z,-2.40
2023-03-04T03:18:19.199Z,-2.50
2023-03-04T03:20:46.448Z,-2.50
2023-03-04T03:23:13.696Z,-2.50
2023-03-04T03:25:40.653Z,-2.60
2023-03-04T03:28:07.818Z,-2.60
2023-03-04T03:30:35.017Z,-2.50
2023-03-04T03:33:01.926Z,-2.60
2023-03-04T03:35:29.236Z,-2.60
2023-03-04T03:37:56.193Z,-2.60
2023-03-04T03:40:23.273Z,-2.60
2023-03-04T03:42:50.168Z,-2.60
2023-03-04T03:45:17.275Z,-2.70
2023-03-04T03:47:44.180Z,-2.70
2023-03-04T03:50:11.531Z,-2.70
2023-03-04T03:52:38.719Z,-2.80
2023-03-04T03:55:06.612Z,-2.70
2023-03-04T03:57:33.530Z,-2.70
2023-03-04T04:00:01.399Z,-2.80
2023-03-04T04:02:28.549Z,-2.70
2023-03-04T04:04:55.799Z,-2.70
2023-03-04T04:07:22.827Z,-2.80
2023-03-04T04:09:50.974Z,-2.80
2023-03-04T04:12:19.124Z,-2.80
2023-03-04T04:14:46.503Z,-2.80
2023-03-04T04:17:14.152Z,-2.90
2023-03-04T04:19:41.648Z,-2.90
2023-03-04T04:22:16.894Z,-2.90
2023-03-04T04:24:43.860Z,-2.90
2023-03-04T04:27:11.468Z,-2.90
2023-03-04T04:29:38.413Z,-2.90
2023-03-04T04:32:05.996Z,-2.90
2023-03-04T04:34:33.256Z,-3.00
2023-03-04T04:37:00.458Z,-3.00
2023-03-04T04:39:27.612Z,-3.10
2023-03-04T04:41:54.523Z,-3.10
2023-03-04T04:44:21.538Z,-3.10
2023-03-04T04:46:48.851Z,-3.10
2023-03-04T04:49:15.923Z,-3.10
2023-03-04T04:51:43.026Z,-3.20
2023-03-04T04:54:11.658Z,-3.20
2023-03-04T04:56:38.758Z,-3.20
2023-03-04T04:59:07.779Z,-3.20
2023-03-04T05:01:35.031Z,-3.20
2023-03-04T05:04:02.155Z,-3.10
2023-03-04T05:06:29.259Z,-3.10
2023-03-04T05:08:56.552Z,-3.20
2023-03-04T05:11:23.640Z,-3.20
2023-03-04T05:13:50.759Z,-3.20
2023-03-04T05:16:18.188Z,-3.20
2023-03-04T05:18:45.287Z,-3.00
2023-03-04T05:21:12.555Z,-2.90
2023-03-04T05:23:41.946Z,-2.60
2023-03-04T05:26:11.531Z,-2.40
2023-03-04T05:28:38.553Z,-2.20
2023-03-04T05:31:06.136Z,-2.00
2023-03-04T05:33:33.405Z,-1.90
2023-03-04T05:36:00.471Z,-1.80
2023-03-04T05:38:27.621Z,-1.70
2023-03-04T05:40:59.837Z,-1.60
2023-03-04T05:43:28.213Z,-1.60
2023-03-04T05:45:55.552Z,-1.50
2023-03-04T05:48:22.660Z,-1.50
2023-03-04T05:50:57.913Z,-1.50
2023-03-04T05:53:25.030Z,-1.40
2023-03-04T05:55:52.183Z,-1.40
2023-03-04T05:58:19.531Z,-1.40
2023-03-04T06:00:46.767Z,-1.30
2023-03-04T06:03:22.504Z,-1.30
2023-03-04T06:05:49.649Z,-1.30
2023-03-04T06:08:16.749Z,-1.30
2023-03-04T06:10:43.723Z,-1.30
2023-03-04T06:13:11.813Z,-1.20
2023-03-04T06:15:40.342Z,-1.20
2023-03-04T06:18:08.445Z,-1.20
2023-03-04T06:20:35.655Z,-1.20
2023-03-04T06:23:02.991Z,-1.10
2023-03-04T06:25:30.626Z,-1.20
2023-03-04T06:27:57.746Z,-1.10
2023-03-04T06:30:24.671Z,-1.10
2023-03-04T06:32:51.588Z,-1.00
2023-03-04T06:35:18.559Z,-1.00
2023-03-04T06:37:45.770Z,-1.00
2023-03-04T06:40:12.954Z,-1.00
2023-03-04T06:42:41.084Z,-0.90
2023-03-04T06:45:09.478Z,-1.00
2023-03-04T06:47:36.545Z,-1.00
2023-03-04T06:50:04.781Z,-0.90
2023-03-04T06:52:31.816Z,-0.90
2023-03-04T06:54:58.720Z,-0.90
2023-03-04T06:57:25.831Z,-0.90
2023-03-04T06:59:53.093Z,-0.90
2023-03-04T07:02:20.204Z,-0.80
2023-03-04T07:04:47.281Z,-0.80
2023-03-04T07:07:14.574Z,-0.70
2023-03-04T07:09:41.663Z,-0.70
2023-03-04T07:12:08.634Z,-0.60
2023-03-04T07:14:35.753Z,-0.50
2023-03-04T07:17:02.810Z,-0.50
2023-03-04T07:19:30.107Z,-0.50
2023-03-04T07:21:57.096Z,-0.40
2023-03-04T07:24:24.016Z,-0.30
2023-03-04T07:26:51.029Z,-0.30
2023-03-04T07:29:18.099Z,-0.20
2023-03-04T07:31:45.113Z,-0.20
2023-03-04T07:34:14.143Z,-0.10
2023-03-04T07:36:41.807Z,-0.10
2023-03-04T07:39:11.470Z,0.00
2023-03-04T07:41:38.493Z,0.00
2023-03-04T07:44:07.368Z,0.10
2023-03-04T07:46:34.873Z,0.10
2023-03-04T07:49:01.958Z,0.10
2023-03-04T07:51:29.512Z,0.20
2023-03-04T07:53:59.411Z,0.20
2023-03-04T07:56:29.988Z,0.20
2023-03-04T07:58:57.563Z,0.20
2023-03-04T08:01:34.323Z,0.20
2023-03-04T08:04:02.187Z,0.20
2023-03-04T08:06:29.525Z,0.30
2023-03-04T08:09:07.877Z,0.30
2023-03-04T08:11:37.417Z,0.30
2023-03-04T08:14:04.598Z,0.40
2023-03-04T08:16:31.682Z,0.40
2023-03-04T08:19:01.172Z,0.40
2023-03-04T08:21:28.540Z,0.40
2023-03-04T08:23:57.472Z,0.50
2023-03-04T08:26:28.185Z,0.50
2023-03-04T08:28:55.613Z,0.50
2023-03-04T08:31:23.622Z,0.50
2023-03-04T08:33:51.368Z,0.60
2023-03-04T08:36:18.430Z,0.70
2023-03-04T08:38:45.408Z,0.70
2023-03-04T08:41:13.165Z,0.70
2023-03-04T08:43:40.440Z,0.80
2023-03-04T08:46:07.718Z,0.80
2023-03-04T08:48:34.884Z,0.90
2023-03-04T08:51:06.833Z,0.90
2023-03-04T08:53:33.736Z,0.90
2023-03-04T08:56:00.839Z,1.00
2023-03-04T08:58:27.836Z,1.00
2023-03-04T09:00:54.785Z,1.00
2023-03-04T09:03:21.860Z,1.10
2023-03-04T09:05:49.427Z,1.10
2023-03-04T09:08:17.018Z,1.20
2023-03-04T09:10:45.982Z,1.30
2023-03-04T09:13:16.307Z,1.30
2023-03-04T09:15:48.860Z,1.40
2023-03-04T09:18:17.857Z,1.40
2023-03-04T09:20:45.615Z,1.50
2023-03-04T09:23:13.005Z,1.50
2023-03-04T09:25:40.412Z,1.60
2023-03-04T09:28:08.128Z,1.60
2023-03-04T09:30:35.270Z,1.70
2023-03-04T09:33:02.588Z,1.70
2023-03-04T09:35:32.894Z,1.70
2023-03-04T09:38:00.517Z,1.70
2023-03-04T09:40:37.841Z,1.70
2023-03-04T09:43:07.137Z,1.60
2023-03-04T09:46:12.394Z,1.70
2023-03-04T09:48:51.507Z,1.60
2023-03-04T09:51:22.809Z,1.60
2023-03-04T09:54:05.540Z,1.60
2023-03-04T09:56:35.474Z,1.60
2023-03-04T09:59:08.179Z,1.50
2023-03-04T10:01:51.682Z,1.60
2023-03-04T10:04:25.889Z,1.60
2023-03-04T10:06:54.831Z,1.60
2023-03-04T10:09:53.769Z,1.60
2023-03-04T10:12:25.761Z,1.60
2023-03-04T10:15:03.599Z,1.60
2023-03-04T10:17:37.101Z,1.70
2023-03-04T10:20:08.256Z,1.70
2023-03-04T10:22:36.814Z,1.70
2023-03-04T10:25:20.698Z,1.70
2023-03-04T10:28:04.768Z,1.70
2023-03-04T10:30:53.042Z,1.70
2023-03-04T10:33:22.996Z,1.60
2023-03-04T10:36:05.759Z,1.60
2023-03-04T10:38:37.170Z,1.70
2023-03-04T10:41:20.161Z,1.70
2023-03-04T10:44:08.427Z,1.70
2023-03-04T10:46:43.996Z,1.70
2023-03-04T10:49:12.498Z,1.70
2023-03-04T10:51:53.025Z,1.80
2023-03-04T10:54:34.071Z,1.70
2023-03-04T10:57:13.609Z,1.80
2023-03-04T10:59:46.535Z,1.80
2023-03-04T11:02:28.880Z,1.70
2023-03-04T11:05:00.144Z,1.70
2023-03-04T11:07:27.896Z,1.70
2023-03-04T11:09:58.247Z,1.70
2023-03-04T11:12:35.347Z,1.60
2023-03-04T11:15:04.121Z,1.60
2023-03-04T11:17:48.615Z,1.60
2023-03-04T11:20:35.033Z,1.60
2023-03-04T11:23:11.505Z,1.60
2023-03-04T11:25:44.893Z,1.70
2023-03-04T11:28:11.947Z,1.90
2023-03-04T11:30:44.262Z,2.10
2023-03-04T11:33:52.935Z,2.30
2023-03-04T11:36:23.034Z,2.40
2023-03-04T11:38:51.529Z,2.50
2023-03-04T11:41:32.564Z,2.60
2023-03-04T11:44:01.002Z,2.60
2023-03-04T11:46:55.704Z,2.60
2023-03-04T11:50:01.823Z,2.60
2023-03-04T11:52:33.620Z,2.60
2023-03-04T11:55:09.739Z,2.60
2023-03-04T11:58:06.409Z,2.60
2023-03-04T12:00:52.162Z,2.60
2023-03-04T12:03:45.309Z,2.70
2023-03-04T12:06:12.227Z,2.70
2023-03-04T12:09:11.836Z,2.60
2023-03-04T12:12:08.417Z,2.60
2023-03-04T12:15:10.189Z,2.60
2023-03-04T12:18:19.508Z,2.60
2023-03-04T12:20:51.766Z,2.70
2023-03-04T12:23:39.810Z,2.70
2023-03-04T12:26:39.119Z,2.60
2023-03-04T12:29:34.256Z,2.60
2023-03-04T12:32:29.450Z,2.60
2023-03-04T12:35:23.393Z,2.60
2023-03-04T12:38:14.030Z,2.60
2023-03-04T12:41:06.872Z,2.60
2023-03-04T12:43:49.738Z,2.70
2023-03-04T12:46:35.501Z,2.70
2023-03-04T12:49:14.487Z,2.70
2023-03-04T12:51:55.401Z,2.70
2023-03-04T12:54:50.801Z,2.70
2023-03-04T12:57:31.702Z,2.70
2023-03-04T13:00:04.661Z,2.60
2023-03-04T13:03:02.403Z,2.60
2023-03-04T13:05:39.786Z,2.60
2023-03-04T13:08:21.887Z,2.60
2023-03-04T13:10:50.763Z,2.60
2023-03-04T13:14:00.374Z,2.60
2023-03-04T13:16:39.360Z,2.70
2023-03-04T13:20:00.303Z,2.70
2023-03-04T13:22:47.500Z,2.70
2023-03-04T13:25:35.443Z,2.60
2023-03-04T13:28:11.595Z,2.60
2023-03-04T13:30:38.499Z,2.60
2023-03-04T13:33:11.659Z,2.60
2023-03-04T13:35:47.970Z,2.60
2023-03-04T13:38:28.710Z,2.50
2023-03-04T13:41:19.834Z,2.50
2023-03-04T13:43:58.170Z,2.40
2023-03-04T13:46:27.142Z,2.40
2023-03-04T13:48:57.115Z,2.40
2023-03-04T13:51:31.846Z,2.40
2023-03-04T13:53:58.786Z,2.30
2023-03-04T13:56:29.431Z,2.30
2023-03-04T13:59:24.040Z,2.30
2023-03-04T14:01:57.984Z,2.20
2023-03-04T14:04:34.934Z,2.20
2023-03-04T14:07:04.590Z,2.20
2023-03-04T14:09:34.591Z,2.30
2023-03-04T14:12:05.259Z,2.30
2023-03-04T14:14:47.799Z,2.20
2023-03-04T14:17:48.308Z,2.20
2023-03-04T14:20:35.779Z,2.20
2023-03-04T14:23:23.168Z,2.20
2023-03-04T14:25:50.429Z,2.20
2023-03-04T14:28:21.658Z,2.20
2023-03-04T14:30:54.328Z,2.20
2023-03-04T14:33:29.604Z,2.30
2023-03-04T14:36:02.634Z,2.30
2023-03-04T14:38:35.959Z,2.40
2023-03-04T14:41:09.584Z,2.30
2023-03-04T14:43:42.532Z,2.30
2023-03-04T14:46:16.359Z,2.30
2023-03-04T14:48:52.341Z,2.30
2023-03-04T14:51:45.824Z,2.30
2023-03-04T14:54:30.310Z,2.30
2023-03-04T14:56:59.809Z,2.40
2023-03-04T14:59:35.691Z,2.40
2023-03-04T15:02:18.665Z,2.50
2023-03-04T15:04:47.486Z,2.40
2023-03-04T15:07:24.543Z,2.40
2023-03-04T15:09:54.720Z,2.50
2023-03-04T15:12:31.725Z,2.40
2023-03-04T15:15:01.106Z,2.40
2023-03-04T15:17:37.867Z,2.40
2023-03-04T15:20:07.816Z,2.40
2023-03-04T15:22:41.147Z,2.30
2023-03-04T15:25:12.697Z,2.30
2023-03-04T15:27:39.834Z,2.30
2023-03-04T15:30:08.029Z,2.30
2023-03-04T15:32:35.043Z,2.20
2023-03-04T15:35:02.161Z,2.20
2023-03-04T15:37:30.048Z,2.10
2023-03-04T15:39:58.418Z,2.10
2023-03-04T15:42:25.834Z,2.10
2023-03-04T15:44:53.152Z,2.10
2023-03-04T15:47:20.222Z,2.10
2023-03-04T15:49:47.821Z,2.10
2023-03-04T15:52:19.423Z,2.10
2023-03-04T15:54:48.044Z,2.10
2023-03-04T15:57:24.557Z,2.10
2023-03-04T15:59:52.710Z,2.10
2023-03-04T16:02:22.836Z,2.00
2023-03-04T16:04:50.407Z,2.10
2023-03-04T16:07:27.320Z,2.00
2023-03-04T16:10:04.467Z,2.00
2023-03-04T16:12:32.544Z,2.00
2023-03-04T16:14:59.717Z,2.00
2023-03-04T16:17:27.543Z,1.90
2023-03-04T16:19:54.824Z,1.90
2023-03-04T16:22:31.939Z,1.90
2023-03-04T16:24:58.908Z,1.90
2023-03-04T16:27:26.688Z,1.90
2023-03-04T16:29:53.763Z,1.90
2023-03-04T16:32:20.755Z,1.90
2023-03-04T16:34:48.164Z,1.90
2023-03-04T16:37:20.421Z,1.80
2023-03-04T16:39:49.312Z,1.80
2023-03-04T16:42:19.160Z,1.80
2023-03-04T16:44:46.526Z,1.80
2023-03-04T16:47:13.525Z,1.80
2023-03-04T16:49:40.724Z,1.70
2023-03-04T16:52:08.737Z,1.70
2023-03-04T16:54:36.921Z,1.70
2023-03-04T16:57:04.017Z,1.70
2023-03-04T16:59:31.185Z,1.60
2023-03-04T17:01:58.251Z,1.60
2023-03-04T17:04:25.493Z,1.60
2023-03-04T17:06:52.541Z,1.60
2023-03-04T17:09:19.558Z,1.60
2023-03-04T17:11:46.834Z,1.60
2023-03-04T17:14:13.753Z,1.60
2023-03-04T17:16:40.748Z,1.50
2023-03-04T17:19:07.765Z,1.50
2023-03-04T17:21:34.805Z,1.50
2023-03-04T17:24:03.307Z,1.50
2023-03-04T17:26:31.230Z,1.50
2023-03-04T17:28:58.224Z,1.50
2023-03-04T17:31:25.484Z,1.50
2023-03-04T17:33:52.546Z,1.50
2023-03-04T17:36:20.071Z,1.50
2023-03-04T17:38:47.456Z,1.50
2023-03-04T17:41:17.624Z,1.50
2023-03-04T17:43:50.930Z,1.40
2023-03-04T17:46:20.632Z,1.50
2023-03-04T17:48:48.108Z,1.40
2023-03-04T17:51:15.396Z,1.40
2023-03-04T17:53:42.659Z,1.50
2023-03-04T17:56:11.352Z,1.40
2023-03-04T17:58:38.792Z,1.50
2023-03-04T18:01:20.072Z,1.40
2023-03-04T18:03:47.436Z,1.40
2023-03-04T18:06:15.013Z,1.40
2023-03-04T18:08:42.063Z,1.30
2023-03-04T18:11:09.754Z,1.40
2023-03-04T18:13:41.217Z,1.30
2023-03-04T18:16:14.142Z,1.30
2023-03-04T18:18:41.312Z,1.30
2023-03-04T18:21:08.862Z,1.30
2023-03-04T18:23:35.961Z,1.30
2023-03-04T18:26:04.525Z,1.30
2023-03-04T18:28:31.861Z,1.30
2023-03-04T18:30:58.940Z,1.30
2023-03-04T18:33:26.009Z,1.30
2023-03-04T18:35:59.039Z,1.30
2023-03-04T18:38:26.184Z,1.30
2023-03-04T18:40:57.261Z,1.20
2023-03-04T18:43:24.474Z,1.20
2023-03-04T18:46:05.545Z,1.30
2023-03-04T18:48:37.439Z,1.30
2023-03-04T18:51:04.634Z,1.20
2023-03-04T18:53:32.221Z,1.20
2023-03-04T18:56:05.701Z,1.20
2023-03-04T18:58:35.716Z,1.30
2023-03-04T19:01:05.193Z,1.30
2023-03-04T19:03:34.631Z,1.30
2023-03-04T19:06:01.797Z,1.30
2023-03-04T19:08:29.002Z,1.20
2023-03-04T19:10:56.312Z,1.20
2023-03-04T19:13:23.365Z,1.20
2023-03-04T19:15:51.497Z,1.20
2023-03-04T19:18:19.212Z,1.20
2023-03-04T19:20:46.235Z,1.20
2023-03-04T19:23:14.093Z,1.30
2023-03-04T19:25:41.561Z,1.30
2023-03-04T19:28:09.407Z,1.30
2023-03-04T19:30:37.469Z,1.20
2023-03-04T19:33:04.650Z,1.20
2023-03-04T19:35:34.507Z,1.20
2023-03-04T19:38:01.612Z,1.20
2023-03-04T19:40:29.029Z,1.20
2023-03-04T19:42:56.931Z,1.20
2023-03-04T19:45:25.658Z,1.20
2023-03-04T19:47:53.122Z,1.20
2023-03-04T19:50:20.325Z,1.20
2023-03-04T19:52:47.603Z,1.20
2023-03-04T19:55:14.535Z,1.20
2023-03-04T19:57:44.769Z,1.20
2023-03-04T20:00:12.957Z,1.30
2023-03-04T20:02:40.543Z,1.30
2023-03-04T20:05:07.965Z,1.30
2023-03-04T20:07:35.297Z,1.30
2023-03-04T20:10:02.286Z,1.30
2023-03-04T20:12:31.352Z,1.20
2023-03-04T20:14:58.359Z,1.30
2023-03-04T20:17:25.404Z,1.30
2023-03-04T20:19:52.450Z,1.30
2023-03-04T20:22:19.424Z,1.30
2023-03-04T20:24:46.419Z,1.30
2023-03-04T20:27:15.556Z,1.20
2023-03-04T20:29:42.625Z,1.20
2023-03-04T20:32:09.986Z,1.30
2023-03-04T20:34:37.269Z,1.20
2023-03-04T20:37:04.257Z,1.20
2023-03-04T20:39:31.205Z,1.20
2023-03-04T20:41:58.951Z,1.20
2023-03-04T20:44:26.267Z,1.20
2023-03-04T20:46:53.733Z,1.20
2023-03-04T20:49:24.281Z,1.20
2023-03-04T20:52:03.301Z,1.20
2023-03-04T20:54:30.987Z,1.20
2023-03-04T20:56:57.974Z,1.20
2023-03-04T20:59:25.113Z,1.20
2023-03-04T21:01:52.480Z,1.20
2023-03-04T21:04:20.770Z,1.10
2023-03-04T21:06:48.494Z,1.20
2023-03-04T21:09:18.315Z,1.20
2023-03-04T21:11:45.781Z,1.20
2023-03-04T21:14:15.501Z,1.20
2023-03-04T21:16:43.178Z,1.20
2023-03-04T21:19:18.919Z,1.30
2023-03-04T21:21:48.355Z,1.30
2023-03-04T21:24:18.081Z,1.20
2023-03-04T21:26:47.516Z,1.30
2023-03-04T21:29:16.411Z,1.20
2023-03-04T21:31:46.223Z,1.20
2023-03-04T21:34:20.210Z,1.20
2023-03-04T21:36:47.155Z,1.20
2023-03-04T21:39:16.519Z,1.30
2023-03-04T21:41:44.350Z,1.20
2023-03-04T21:44:22.535Z,1.30
2023-03-04T21:47:00.041Z,1.20
2023-03-04T21:49:27.399Z,1.20
2023-03-04T21:51:54.625Z,1.20
2023-03-04T21:54:21.696Z,1.20
2023-03-04T21:56:50.301Z,1.20
2023-03-04T21:59:18.732Z,1.20
2023-03-04T22:01:46.511Z,1.30
2023-03-04T22:04:13.770Z,1.20
2023-03-04T22:06:41.481Z,1.30
2023-03-04T22:09:08.574Z,1.30
2023-03-04T22:11:36.118Z,1.30
2023-03-04T22:14:03.634Z,1.30
2023-03-04T22:16:31.831Z,1.30
2023-03-04T22:18:59.794Z,1.30
2023-03-04T22:21:26.811Z,1.30
2023-03-04T22:23:53.893Z,1.30
2023-03-04T22:26:31.903Z,1.30
2023-03-04T22:29:01.119Z,1.30
2023-03-04T22:31:33.317Z,1.20
2023-03-04T22:34:08.229Z,1.20
2023-03-04T22:36:37.895Z,1.30
2023-03-04T22:39:07.575Z,1.20
2023-03-04T22:41:35.037Z,1.20
2023-03-04T22:44:02.664Z,1.10
2023-03-04T22:46:31.604Z,1.20
2023-03-04T22:49:01.075Z,1.20
2023-03-04T22:51:29.003Z,1.20
2023-03-04T22:53:56.365Z,1.20
2023-03-04T22:56:23.889Z,1.20
2023-03-04T22:58:51.330Z,1.20
2023-03-04T23:01:19.283Z,1.30
2023-03-04T23:03:48.546Z,1.30
2023-03-04T23:06:25.279Z,1.30
2023-03-04T23:08:52.840Z,1.30
2023-03-04T23:11:26.575Z,1.30
2023-03-04T23:13:54.591Z,1.30
2023-03-04T23:16:22.593Z,1.30
2023-03-04T23:18:50.167Z,1.20
2023-03-04T23:21:22.928Z,1.30
2023-03-04T23:23:50.874Z,1.30
2023-03-04T23:26:26.337Z,1.30
2023-03-04T23:28:55.830Z,1.30
2023-03-04T23:31:23.252Z,1.30
2023-03-04T23:33:50.284Z,1.40
2023-03-04T23:36:19.038Z,1.30
2023-03-04T23:38:47.988Z,1.30
2023-03-04T23:41:17.900Z,1.30
2023-03-04T23:43:45.305Z,1.30
2023-03-04T23:46:13.167Z,1.30
2023-03-04T23:48:43.306Z,1.30
2023-03-04T23:51:10.490Z,1.30
2023-03-04T23:53:39.223Z,1.30
2023-03-04T23:56:10.619Z,1.30
2023-03-04T23:58:37.726Z,1.30
